Time;durP1;ratioP1;P1;durP2;ratioP2;P2;SDS_P1;SDS_P2;PMS_P1;PMS_P2;Temp;Humidity;BMP_temperature;BMP_pressure;BME280_temperature;BME280_humidity;BME280_pressure;Samples;Min_cycle;Max_cycle;Signal;HPM_P1;HPM_P2
2021/10/31 00:01:58;;;;;;;11.07;2.92;;;;;;;22.06;36.83;98773.53;5033121;28;20029;-79
2021/10/31 00:04:24;;;;;;;10.60;1.92;;;;;;;22.13;36.79;98770.59;5033314;28;20029;-71
2021/10/31 00:06:49;;;;;;;12.80;3.00;;;;;;;22.28;37.02;98765.41;5014987;28;20056;-79
2021/10/31 00:09:16;;;;;;;15.48;2.92;;;;;;;22.25;37.13;98751.63;5015337;28;20029;-71
2021/10/31 00:11:41;;;;;;;10.85;3.05;;;;;;;22.35;36.72;98745.75;5033137;28;20108;-72
2021/10/31 00:14:07;;;;;;;13.10;2.83;;;;;;;22.50;36.40;98748.91;5033360;28;20060;-74
2021/10/31 00:16:33;;;;;;;10.60;2.70;;;;;;;22.47;36.65;98732.31;5032954;28;20476;-71
2021/10/31 00:18:58;;;;;;;13.77;3.58;;;;;;;22.65;36.38;98738.13;5033384;28;20026;-79
2021/10/31 00:21:26;;;;;;;12.75;2.85;;;;;;;22.66;36.60;98715.41;5032222;28;20471;-72
2021/10/31 00:23:53;;;;;;;9.52;2.60;;;;;;;22.81;36.30;98707.41;5033341;28;20436;-80
2021/10/31 00:26:18;;;;;;;20.70;3.22;;;;;;;22.51;37.27;98702.38;5032872;28;20026;-73
2021/10/31 00:28:44;;;;;;;20.77;3.55;;;;;;;22.57;37.43;98697.81;5032787;28;20037;-72
2021/10/31 00:31:10;;;;;;;13.15;3.47;;;;;;;22.79;36.85;98686.81;5032928;28;20057;-72
2021/10/31 00:33:36;;;;;;;15.10;2.67;;;;;;;22.79;37.24;98682.03;5032771;28;20033;-72
2021/10/31 00:36:02;;;;;;;27.40;8.10;;;;;;;22.62;37.57;98670.22;5032797;28;20026;-73
2021/10/31 00:38:28;;;;;;;14.60;3.90;;;;;;;22.80;37.40;98657.75;5032731;28;20034;-80
2021/10/31 00:40:53;;;;;;;16.80;4.72;;;;;;;22.66;37.91;98651.41;5032774;28;20033;-71
2021/10/31 00:43:19;;;;;;;11.45;3.88;;;;;;;22.74;37.31;98642.81;5032992;28;20025;-71
2021/10/31 00:45:45;;;;;;;11.95;3.85;;;;;;;22.84;37.12;98636.16;5032695;28;20037;-72
2021/10/31 00:48:11;;;;;;;32.92;5.97;;;;;;;22.69;37.59;98619.13;5032618;28;20094;-73
2021/10/31 00:50:37;;;;;;;16.80;3.88;;;;;;;22.84;37.46;98602.75;5032669;28;20025;-71
2021/10/31 00:53:03;;;;;;;16.40;3.00;;;;;;;22.50;37.99;98586.72;5032570;28;20391;-71
2021/10/31 00:55:29;;;;;;;11.32;3.17;;;;;;;22.78;37.11;98573.91;5032588;28;20049;-72
2021/10/31 00:57:57;;;;;;;13.55;3.58;;;;;;;22.86;36.98;98550.19;5032512;28;20021;-72
2021/10/31 01:00:23;;;;;;;17.90;3.97;;;;;;;22.54;38.06;98554.78;5030441;28;20051;-80
2021/10/31 01:02:50;;;;;;;17.95;4.07;;;;;;;22.77;37.89;98536.94;5032231;28;20053;-73
2021/10/31 01:05:20;;;;;;;20.45;4.93;;;;;;;22.99;37.54;98520.31;5032456;28;20029;-71
2021/10/31 01:08:19;;;;;;;15.48;3.92;;;;;;;22.85;38.21;98507.66;5031204;28;20033;-72
2021/10/31 01:11:26;;;;;;;20.20;5.15;;;;;;;22.60;39.29;98489.00;5032458;28;20029;-71
2021/10/31 01:13:59;;;;;;;15.68;3.55;;;;;;;22.86;38.55;98469.44;4988484;28;20116;-71
2021/10/31 01:16:38;;;;;;;18.88;3.72;;;;;;;22.42;39.65;98458.19;5031077;28;20021;-72
2021/10/31 01:19:26;;;;;;;18.45;3.75;;;;;;;22.57;39.46;98441.78;5032408;28;20036;-80
2021/10/31 01:22:15;;;;;;;17.10;3.95;;;;;;;21.91;41.14;98444.28;5032261;28;20052;-72
2021/10/31 01:24:59;;;;;;;21.63;5.03;;;;;;;22.51;40.09;98424.88;5032273;28;20040;-73
2021/10/31 01:27:31;;;;;;;17.90;3.72;;;;;;;22.58;39.89;98424.63;5032329;28;20083;-72
2021/10/31 01:30:29;;;;;;;19.60;3.97;;;;;;;22.94;39.32;98413.06;5032281;28;20500;-72
2021/10/31 01:33:20;;;;;;;11.85;3.38;;;;;;;22.03;41.16;98393.47;5006365;28;20462;-72
2021/10/31 01:36:02;;;;;;;12.90;2.90;;;;;;;22.01;41.35;98395.13;5036108;28;20049;-72
2021/10/31 01:39:04;;;;;;;23.02;4.72;;;;;;;22.35;41.06;98372.94;5035065;28;20021;-71
2021/10/31 01:41:43;;;;;;;19.83;4.90;;;;;;;22.04;41.67;98369.22;5026158;28;20017;-73
2021/10/31 01:44:24;;;;;;;25.23;4.22;;;;;;;21.60;42.55;98353.13;5026038;28;20380;-74
2021/10/31 01:47:14;;;;;;;21.77;5.65;;;;;;;21.77;42.37;98334.34;5028344;28;20022;-78
2021/10/31 01:49:40;;;;;;;;;;;;;;;22.03;41.89;98351.75;5027821;28;20029;-72
2021/10/31 01:52:13;;;;;;;23.40;5.28;;;;;;;22.31;41.42;98332.59;5017137;28;19926;-78
2021/10/31 01:54:52;;;;;;;24.25;5.65;;;;;;;21.94;42.48;98314.75;5032915;28;20017;-78
2021/10/31 01:57:22;;;;;;;16.23;4.50;;;;;;;22.11;42.19;98305.81;5032788;28;20430;-73
2021/10/31 01:59:55;;;;;;;28.42;8.48;;;;;;;22.35;41.82;98295.03;5033493;28;20049;-77
2021/10/31 02:02:23;;;;;;;28.50;9.20;;;;;;;21.96;42.76;98274.13;5034369;28;20049;-72
2021/10/31 02:04:51;;;;;;;20.08;5.30;;;;;;;21.89;43.22;98257.69;5032838;28;20037;-72
2021/10/31 02:07:19;;;;;;;30.25;10.23;;;;;;;22.30;42.59;98253.16;5035288;28;20029;-72
2021/10/31 02:09:46;;;;;;;17.63;5.13;;;;;;;22.21;42.91;98239.16;5034550;28;20026;-72
2021/10/31 02:12:16;;;;;;;19.63;5.18;;;;;;;22.16;42.98;98265.56;5034075;28;20047;-72
2021/10/31 02:14:43;;;;;;;20.33;8.15;;;;;;;22.25;42.84;98251.72;5031527;28;20672;-73
2021/10/31 02:17:09;;;;;;;19.13;5.68;;;;;;;22.35;42.37;98235.84;5034001;28;20079;-78
2021/10/31 02:19:41;;;;;;;30.95;11.10;;;;;;;22.25;42.89;98229.47;5034154;28;20966;-75
2021/10/31 02:22:11;;;;;;;27.65;7.03;;;;;;;22.62;42.12;98224.13;5034078;28;20052;-73
2021/10/31 02:24:37;;;;;;;17.58;3.45;;;;;;;21.78;43.85;98212.81;5033897;28;20040;-72
2021/10/31 02:27:18;;;;;;;17.27;3.72;;;;;;;21.23;45.21;98201.13;5033889;28;20029;-73
2021/10/31 02:29:56;;;;;;;9.75;3.90;;;;;;;21.70;43.45;98192.06;5031793;28;20067;-78
2021/10/31 02:32:25;;;;;;;12.52;2.65;;;;;;;22.02;42.87;98199.28;5031607;28;20408;-72
2021/10/31 02:34:52;;;;;;;19.80;4.18;;;;;;;21.53;43.67;98191.41;5033875;28;20029;-73
2021/10/31 02:37:19;;;;;;;19.00;5.10;;;;;;;21.73;43.56;98172.47;5033612;28;20104;-73
2021/10/31 02:39:45;;;;;;;22.08;5.60;;;;;;;22.09;42.53;98168.47;5033789;28;20050;-73
2021/10/31 02:42:12;;;;;;;27.23;6.15;;;;;;;22.19;42.73;98147.06;5033766;28;20068;-72
2021/10/31 02:44:39;;;;;;;26.55;5.53;;;;;;;22.14;43.20;98128.94;5032649;28;20045;-73
2021/10/31 02:47:09;;;;;;;26.02;6.22;;;;;;;22.13;43.61;98107.94;5033927;28;20521;-72
2021/10/31 02:49:36;;;;;;;40.28;6.57;;;;;;;22.27;42.92;98103.84;5015804;28;20437;-72
2021/10/31 02:52:09;;;;;;;32.38;7.38;;;;;;;22.23;43.07;98075.41;5033542;28;20104;-72
2021/10/31 02:54:56;;;;;;;31.92;10.43;;;;;;;22.07;43.74;98073.59;5033424;28;20495;-72
2021/10/31 02:57:43;;;;;;;27.88;4.93;;;;;;;22.12;43.48;98048.75;5031008;28;20450;-75
2021/10/31 03:00:13;;;;;;;26.65;6.30;;;;;;;22.05;43.75;98026.75;5032050;28;20032;-72
2021/10/31 03:02:41;;;;;;;33.38;7.15;;;;;;;22.10;43.35;98001.16;5033034;28;20446;-77
2021/10/31 03:05:07;;;;;;;24.25;6.30;;;;;;;21.81;44.14;97984.78;5033222;28;20460;-75
2021/10/31 03:07:33;;;;;;;24.83;6.85;;;;;;;21.97;44.05;97964.31;5033183;28;20155;-77
2021/10/31 03:09:59;;;;;;;24.80;4.85;;;;;;;21.58;45.31;97944.38;5030760;28;20535;-72
2021/10/31 03:12:25;;;;;;;25.90;7.00;;;;;;;21.89;44.41;97930.47;5033240;28;20031;-75
2021/10/31 03:14:51;;;;;;;27.20;6.47;;;;;;;21.45;45.79;97927.00;5015230;28;20498;-76
2021/10/31 03:17:17;;;;;;;15.30;2.92;;;;;;;21.73;44.99;97964.06;5033236;28;20112;-76
2021/10/31 03:19:43;;;;;;;12.88;3.13;;;;;;;21.78;44.42;97951.56;5014374;28;20032;-77
2021/10/31 03:22:09;;;;;;;10.68;3.53;;;;;;;21.65;44.71;97990.56;5032461;28;20021;-72
2021/10/31 03:24:35;;;;;;;14.88;3.78;;;;;;;22.36;42.42;98012.84;5032518;28;20113;-78
2021/10/31 03:27:02;;;;;;;9.15;1.67;;;;;;;22.55;42.08;98008.13;5032667;28;20102;-73
2021/10/31 03:29:27;;;;;;;3.88;1.30;;;;;;;22.53;41.94;98015.41;5014705;28;20033;-78
2021/10/31 03:31:53;;;;;;;4.45;1.45;;;;;;;22.79;40.92;98018.69;5032466;28;20506;-71
2021/10/31 03:34:20;;;;;;;2.10;0.85;;;;;;;22.69;41.10;98012.34;5032153;28;20029;-78
2021/10/31 03:36:47;;;;;;;4.70;0.90;;;;;;;22.75;40.72;98016.06;5032565;28;20112;-78
2021/10/31 03:39:13;;;;;;;4.28;0.85;;;;;;;22.47;41.22;98012.44;5014726;28;20091;-77
2021/10/31 03:41:38;;;;;;;4.07;1.27;;;;;;;22.65;40.89;98000.56;5032431;28;20025;-71
2021/10/31 03:44:04;;;;;;;2.28;0.80;;;;;;;22.54;41.01;97989.13;5014795;28;20037;-77
2021/10/31 03:46:31;;;;;;;2.33;0.50;;;;;;;22.60;40.69;97987.28;5032509;28;20041;-72
2021/10/31 03:48:56;;;;;;;7.68;2.00;;;;;;;22.59;40.63;97994.06;5032360;28;20033;-77
2021/10/31 03:51:22;;;;;;;8.20;3.90;;;;;;;22.51;40.55;97996.38;5032350;28;20033;-72
2021/10/31 03:53:48;;;;;;;17.45;10.85;;;;;;;22.37;40.49;97996.97;5032414;28;20034;-77
2021/10/31 03:56:14;;;;;;;14.85;9.65;;;;;;;22.34;40.52;97995.09;5032102;28;20096;-72
2021/10/31 03:58:39;;;;;;;10.63;6.03;;;;;;;22.17;40.66;97977.88;5032036;28;20033;-72
2021/10/31 04:01:05;;;;;;;15.02;8.05;;;;;;;22.26;40.51;97974.34;5032175;28;20025;-72
2021/10/31 04:03:31;;;;;;;8.00;5.13;;;;;;;22.01;40.72;97981.66;5031863;28;20049;-77
2021/10/31 04:05:56;;;;;;;6.32;2.90;;;;;;;21.97;40.90;97986.56;5014192;28;20029;-72
2021/10/31 04:08:22;;;;;;;6.95;3.90;;;;;;;22.17;40.25;97982.66;5031836;28;20112;-71
2021/10/31 04:10:48;;;;;;;10.15;5.38;;;;;;;22.01;40.72;97976.09;5032115;28;20022;-77
2021/10/31 04:13:13;;;;;;;12.35;7.25;;;;;;;22.18;39.93;97973.84;5031920;28;20499;-77
2021/10/31 04:15:41;;;;;;;16.30;10.98;;;;;;;22.14;40.20;97968.44;5031803;28;20486;-75
2021/10/31 04:18:07;;;;;;;11.57;9.15;;;;;;;22.26;39.97;97964.00;5014010;28;20381;-71
2021/10/31 04:20:33;;;;;;;15.35;9.80;;;;;;;22.11;40.04;97957.47;5031737;28;20036;-76
2021/10/31 04:22:59;;;;;;;6.78;4.18;;;;;;;21.98;40.15;97954.75;5013858;28;20033;-74
2021/10/31 04:25:25;;;;;;;3.53;2.10;;;;;;;22.10;40.16;97942.78;5031693;28;20033;-75
2021/10/31 04:27:51;;;;;;;4.28;1.17;;;;;;;22.04;39.90;97935.47;5031639;28;20041;-72
2021/10/31 04:30:17;;;;;;;3.08;1.60;;;;;;;22.07;40.04;97929.78;5031645;28;20395;-79
2021/10/31 04:32:43;;;;;;;5.30;2.00;;;;;;;22.06;39.70;97913.53;5031624;28;20112;-72
2021/10/31 04:35:10;;;;;;;6.30;3.08;;;;;;;22.15;39.72;97919.94;5031567;28;20025;-72
2021/10/31 04:37:38;;;;;;;15.73;8.15;;;;;;;22.19;39.45;97930.13;5031433;28;20120;-72
2021/10/31 04:40:06;;;;;;;16.80;11.48;;;;;;;22.22;39.41;97934.75;5031561;28;20108;-72
2021/10/31 04:42:32;;;;;;;20.73;13.68;;;;;;;22.25;39.34;97947.78;5032221;28;20029;-79
2021/10/31 04:44:58;;;;;;;15.98;6.97;;;;;;;22.19;39.50;97938.47;5032390;28;20033;-77
2021/10/31 04:47:24;;;;;;;4.57;2.38;;;;;;;22.13;39.53;97933.50;5014437;28;20179;-71
2021/10/31 04:49:50;;;;;;;6.60;1.40;;;;;;;22.18;39.35;97929.38;5032276;28;20029;-74
2021/10/31 04:52:16;;;;;;;6.95;1.25;;;;;;;22.22;39.30;97934.75;5032191;28;20030;-79
2021/10/31 04:54:42;;;;;;;3.17;0.90;;;;;;;22.17;39.51;97925.03;5014413;28;20025;-79
2021/10/31 04:57:08;;;;;;;6.10;3.15;;;;;;;22.09;39.68;97907.88;5032225;28;20021;-79
2021/10/31 04:59:34;;;;;;;3.00;1.65;;;;;;;22.03;39.64;97920.03;5031847;28;20079;-73
2021/10/31 05:02:00;;;;;;;3.22;0.68;;;;;;;21.89;39.90;97918.56;5032352;28;20044;-74
2021/10/31 05:04:26;;;;;;;3.95;1.00;;;;;;;22.00;39.58;97923.72;5032438;28;20029;-74
2021/10/31 05:06:51;;;;;;;5.03;1.63;;;;;;;22.05;39.56;97918.31;5015338;28;20530;-74
2021/10/31 05:09:17;;;;;;;7.57;4.45;;;;;;;21.99;39.69;97903.50;5036486;28;20029;-76
2021/10/31 05:11:43;;;;;;;11.50;6.63;;;;;;;22.11;39.27;97904.63;5017221;28;20124;-74
2021/10/31 05:14:08;;;;;;;9.00;5.18;;;;;;;21.96;39.78;97901.59;5034494;28;20036;-74
2021/10/31 05:16:35;;;;;;;7.38;3.97;;;;;;;22.03;39.64;97915.22;5034564;28;20034;-74
2021/10/31 05:19:02;;;;;;;2.08;1.20;;;;;;;21.94;39.67;97915.19;5034274;28;20033;-74
2021/10/31 05:21:28;;;;;;;4.22;0.80;;;;;;;22.06;39.35;97922.63;5016387;28;20079;-74
2021/10/31 05:23:53;;;;;;;2.67;0.88;;;;;;;22.04;39.04;97933.44;5034410;28;20491;-74
2021/10/31 05:26:19;;;;;;;0.88;0.50;;;;;;;21.83;39.75;97925.94;5034291;28;20083;-74
2021/10/31 05:28:45;;;;;;;2.08;0.50;;;;;;;21.86;39.63;97909.16;5036154;28;20060;-74
2021/10/31 05:31:11;;;;;;;4.25;0.70;;;;;;;21.96;39.47;97907.16;5036122;28;20025;-79
2021/10/31 05:33:36;;;;;;;1.25;0.38;;;;;;;21.99;39.18;97886.81;5036128;28;20122;-74
2021/10/31 05:36:03;;;;;;;2.10;0.60;;;;;;;21.99;39.09;97886.00;5035711;28;20033;-74
2021/10/31 05:38:29;;;;;;;1.85;0.47;;;;;;;22.01;39.05;97900.25;5035959;28;20116;-74
2021/10/31 05:40:55;;;;;;;1.30;0.60;;;;;;;21.98;38.86;97901.91;5036279;28;20053;-74
2021/10/31 05:43:20;;;;;;;2.60;0.60;;;;;;;22.09;38.97;97915.44;5035913;28;20026;-74
2021/10/31 05:45:46;;;;;;;1.27;0.40;;;;;;;22.04;38.74;97905.66;5018108;28;20038;-73
2021/10/31 05:48:12;;;;;;;2.47;0.70;;;;;;;22.02;39.06;97905.34;5035808;28;20036;-74
2021/10/31 05:50:39;;;;;;;2.75;0.43;;;;;;;22.00;39.01;97899.47;5035472;28;20104;-75
2021/10/31 05:53:05;;;;;;;5.15;0.68;;;;;;;22.08;38.77;97892.41;5035808;28;20025;-73
2021/10/31 05:55:30;;;;;;;1.35;0.50;;;;;;;22.12;39.02;97890.25;5035697;28;20032;-74
2021/10/31 05:57:56;;;;;;;2.47;0.70;;;;;;;22.13;38.86;97886.25;5017871;28;20139;-73
2021/10/31 06:00:22;;;;;;;4.78;0.80;;;;;;;22.09;38.65;97873.72;5017858;28;20030;-79
2021/10/31 06:02:48;;;;;;;1.77;0.70;;;;;;;22.07;38.84;97868.59;5035483;28;20045;-74
2021/10/31 06:05:16;;;;;;;3.03;0.70;;;;;;;22.12;38.61;97850.56;5035488;28;20033;-73
2021/10/31 06:07:43;;;;;;;5.05;1.50;;;;;;;22.14;38.36;97860.00;5035516;28;20091;-73
2021/10/31 06:10:12;;;;;;;5.70;3.40;;;;;;;22.03;38.61;97856.84;5035517;28;20025;-74
2021/10/31 06:12:47;;;;;;;25.90;14.75;;;;;;;22.03;38.58;97851.28;5035431;28;20544;-74
2021/10/31 06:15:15;;;;;;;26.38;15.18;;;;;;;22.02;38.52;97849.75;5035308;28;20029;-74
2021/10/31 06:17:41;;;;;;;25.92;15.77;;;;;;;22.02;38.52;97838.63;5034992;28;20032;-74
2021/10/31 06:20:09;;;;;;;25.85;16.20;;;;;;;22.04;38.72;97850.03;5034201;28;20021;-74
2021/10/31 06:22:35;;;;;;;30.13;19.25;;;;;;;22.02;38.69;97841.41;5035174;28;20096;-79
2021/10/31 06:25:01;;;;;;;33.33;19.63;;;;;;;21.99;38.64;97828.44;5035071;28;20112;-73
2021/10/31 06:27:26;;;;;;;18.90;8.95;;;;;;;22.02;38.60;97824.72;5035132;28;20018;-73
2021/10/31 06:29:52;;;;;;;11.93;5.97;;;;;;;22.02;38.53;97827.50;5035073;28;20451;-78
2021/10/31 06:32:18;;;;;;;3.83;1.80;;;;;;;22.00;38.22;97813.28;5035065;28;20369;-74
2021/10/31 06:34:43;;;;;;;3.67;1.42;;;;;;;21.99;38.32;97817.31;5034929;28;20025;-74
2021/10/31 06:37:09;;;;;;;5.45;1.40;;;;;;;21.92;38.38;97816.84;5034760;28;20076;-75
2021/10/31 06:39:34;;;;;;;4.97;1.30;;;;;;;21.82;38.81;97811.22;5034864;28;20072;-73
2021/10/31 06:42:00;;;;;;;2.42;0.98;;;;;;;21.87;38.44;97813.41;5034843;28;20028;-74
2021/10/31 06:44:26;;;;;;;4.47;0.90;;;;;;;21.81;38.63;97814.47;5034702;28;20034;-74
2021/10/31 06:46:51;;;;;;;3.13;0.90;;;;;;;21.81;38.38;97811.69;5034702;28;20029;-74
2021/10/31 06:49:17;;;;;;;4.18;1.00;;;;;;;21.79;38.59;97814.94;5034671;28;20030;-77
2021/10/31 06:51:43;;;;;;;5.07;1.90;;;;;;;21.84;38.38;97810.78;5034722;28;20037;-74
2021/10/31 06:54:09;;;;;;;10.02;3.67;;;;;;;21.78;38.66;97798.72;5034628;28;20025;-73
2021/10/31 06:56:35;;;;;;;13.00;5.35;;;;;;;21.72;38.60;97800.56;5034887;28;20376;-74
2021/10/31 06:59:02;;;;;;;9.43;5.95;;;;;;;21.74;38.43;97793.31;5034526;28;20037;-74
2021/10/31 07:01:28;;;;;;;18.95;10.77;;;;;;;21.77;38.31;97795.19;5034516;28;20022;-75
2021/10/31 07:03:54;;;;;;;20.42;10.98;;;;;;;21.70;38.53;97795.47;5034266;28;20041;-77
2021/10/31 07:06:19;;;;;;;22.13;13.98;;;;;;;21.68;38.17;97791.59;5034319;28;20183;-74
2021/10/31 07:08:45;;;;;;;23.73;13.93;;;;;;;21.67;38.37;97792.81;5034330;28;20021;-73
2021/10/31 07:11:11;;;;;;;16.45;8.98;;;;;;;21.63;38.27;97786.66;5034232;28;20029;-74
2021/10/31 07:13:38;;;;;;;14.98;7.38;;;;;;;21.59;38.30;97787.53;5034188;28;20056;-74
2021/10/31 07:16:04;;;;;;;11.20;5.15;;;;;;;21.56;38.17;97779.38;5034148;28;20025;-74
2021/10/31 07:18:29;;;;;;;7.65;3.47;;;;;;;21.44;38.08;97775.47;5034056;28;20097;-75
2021/10/31 07:20:55;;;;;;;8.05;1.85;;;;;;;21.39;38.32;97786.41;5034170;28;20100;-74
2021/10/31 07:23:21;;;;;;;6.68;2.08;;;;;;;21.35;38.10;97789.31;5032261;28;20030;-76
2021/10/31 07:25:47;;;;;;;6.45;2.30;;;;;;;21.34;38.08;97790.56;5033474;28;20030;-75
2021/10/31 07:28:12;;;;;;;3.42;1.27;;;;;;;21.21;38.26;97798.16;5033546;28;20037;-77
2021/10/31 07:30:38;;;;;;;10.88;5.57;;;;;;;21.18;38.24;97787.97;5033062;28;20026;-75
2021/10/31 07:33:03;;;;;;;40.95;23.80;;;;;;;20.98;38.65;97794.66;5033643;28;20097;-75
2021/10/31 07:35:30;;;;;;;28.35;15.02;;;;;;;21.06;38.19;97795.94;5033905;28;20032;-76
2021/10/31 07:37:56;;;;;;;14.75;8.30;;;;;;;21.08;38.34;97797.47;5033777;28;20040;-76
2021/10/31 07:40:23;;;;;;;12.93;5.47;;;;;;;21.01;38.24;97791.00;5033772;28;20025;-77
2021/10/31 07:42:49;;;;;;;21.27;4.43;;;;;;;20.95;38.44;97798.34;5033700;28;20025;-76
2021/10/31 07:45:15;;;;;;;6.68;2.38;;;;;;;20.93;38.39;97794.47;5033635;28;20032;-76
2021/10/31 07:47:41;;;;;;;6.55;2.45;;;;;;;20.92;38.33;97796.47;5033584;28;20100;-75
2021/10/31 07:50:08;;;;;;;4.53;1.27;;;;;;;20.88;38.11;97786.75;5033586;28;20125;-76
2021/10/31 07:52:34;;;;;;;5.50;1.30;;;;;;;20.74;38.52;97790.81;5015932;28;20392;-78
2021/10/31 07:55:03;;;;;;;5.20;1.05;;;;;;;20.80;38.39;97789.00;5033503;28;20030;-82
2021/10/31 07:57:30;;;;;;;8.85;1.38;;;;;;;20.74;38.55;97790.81;5033489;28;20365;-79
2021/10/31 07:59:55;;;;;;;9.98;1.27;;;;;;;20.80;38.38;97785.47;5033446;28;20025;-75
2021/10/31 08:02:21;;;;;;;5.13;1.30;;;;;;;20.80;38.40;97783.47;5033165;28;20104;-77
2021/10/31 08:04:47;;;;;;;6.10;1.10;;;;;;;20.79;38.35;97781.91;5033259;28;20053;-75
2021/10/31 08:07:13;;;;;;;6.13;1.40;;;;;;;20.81;38.42;97784.22;5033222;28;20036;-79
2021/10/31 08:09:40;;;;;;;6.30;1.20;;;;;;;20.87;38.18;97774.88;5033128;28;20468;-75
2021/10/31 08:12:06;;;;;;;3.97;0.88;;;;;;;20.89;38.37;97777.19;5033089;28;20373;-79
2021/10/31 08:14:32;;;;;;;3.85;1.60;;;;;;;20.89;38.34;97783.50;5033112;28;20100;-78
2021/10/31 08:16:58;;;;;;;9.85;1.90;;;;;;;20.80;38.45;97783.47;5032977;28;20453;-76
2021/10/31 08:19:24;;;;;;;19.38;12.25;;;;;;;20.87;38.35;97785.97;5033290;28;20033;-75
2021/10/31 08:21:52;;;;;;;22.20;13.23;;;;;;;20.76;38.63;97777.25;5032983;28;20030;-78
2021/10/31 08:24:19;;;;;;;25.55;16.83;;;;;;;20.91;38.37;97781.03;5032940;28;20036;-75
2021/10/31 08:26:44;;;;;;;18.15;10.52;;;;;;;20.97;38.41;97782.00;5032799;28;20041;-75
2021/10/31 08:29:12;;;;;;;8.43;3.42;;;;;;;21.01;38.45;97779.88;5033001;28;20037;-78
2021/10/31 08:31:41;;;;;;;8.13;2.50;;;;;;;21.06;38.33;97773.72;5032957;28;20029;-77
2021/10/31 08:34:07;;;;;;;3.70;1.20;;;;;;;21.13;38.19;97769.13;5032918;28;20033;-76
2021/10/31 08:36:33;;;;;;;4.10;1.20;;;;;;;21.17;38.40;97775.34;5032745;28;20480;-75
2021/10/31 08:39:00;;;;;;;9.20;1.30;;;;;;;21.21;38.27;97773.19;5032383;28;20029;-75
2021/10/31 08:41:27;;;;;;;9.95;3.50;;;;;;;21.13;38.53;97761.56;5031863;28;20022;-75
2021/10/31 08:43:54;;;;;;;12.20;3.35;;;;;;;21.30;38.28;97757.34;5032578;28;20030;-75
2021/10/31 08:46:20;;;;;;;21.85;9.27;;;;;;;21.29;38.42;97760.59;5032589;28;20029;-75
2021/10/31 08:48:47;;;;;;;8.63;3.05;;;;;;;21.41;38.10;97756.16;5014852;28;20036;-75
2021/10/31 08:51:14;;;;;;;6.32;1.85;;;;;;;21.48;37.91;97753.09;5032452;28;20480;-74
2021/10/31 08:53:39;;;;;;;8.80;1.85;;;;;;;21.43;37.99;97748.16;5032662;28;20562;-92
2021/10/31 08:56:06;;;;;;;4.97;1.52;;;;;;;21.36;38.40;97749.19;5014346;28;20496;-77
2021/10/31 08:58:32;;;;;;;8.52;1.48;;;;;;;21.32;38.50;97732.69;5032373;28;20080;-77
2021/10/31 09:00:58;;;;;;;6.95;1.42;;;;;;;21.42;38.26;97741.81;5032511;28;20026;-78
2021/10/31 09:03:23;;;;;;;5.03;1.60;;;;;;;21.52;38.09;97729.50;5032229;28;20050;-78
2021/10/31 09:05:50;;;;;;;6.95;1.30;;;;;;;21.57;37.95;97719.78;5032374;28;20057;-77
2021/10/31 09:08:17;;;;;;;16.77;7.80;;;;;;;21.54;38.03;97715.16;5031584;28;20037;-77
2021/10/31 09:10:43;;;;;;;11.57;1.30;;;;;;;21.72;37.80;97704.06;5031376;28;20018;-79
2021/10/31 09:13:10;;;;;;;8.63;1.90;;;;;;;21.64;37.41;97705.59;5031211;28;20040;-79
2021/10/31 09:15:36;;;;;;;5.40;1.40;;;;;;;21.77;37.54;97700.69;5028830;28;20072;-79
2021/10/31 09:18:03;;;;;;;7.57;2.25;;;;;;;21.74;37.49;97706.38;5031719;28;20037;-76
2021/10/31 09:20:31;;;;;;;5.53;2.17;;;;;;;21.87;37.64;97693.13;5032087;28;20029;-76
2021/10/31 09:22:58;;;;;;;9.45;1.30;;;;;;;21.72;37.65;97698.50;5032415;28;20049;-76
2021/10/31 09:25:28;;;;;;;7.40;1.42;;;;;;;21.89;37.25;97685.84;5032195;28;20108;-77
2021/10/31 09:27:55;;;;;;;8.48;1.52;;;;;;;21.88;37.52;97686.34;5019347;28;20034;-77
2021/10/31 09:30:26;;;;;;;11.13;2.95;;;;;;;22.00;37.36;97677.06;5032014;28;20468;-76
2021/10/31 09:32:52;;;;;;;6.88;2.00;;;;;;;22.02;37.32;97671.03;5032188;28;20079;-76
2021/10/31 09:35:21;;;;;;;5.97;1.65;;;;;;;22.05;37.30;97664.53;5014356;28;20033;-79
2021/10/31 09:37:50;;;;;;;6.82;1.55;;;;;;;22.09;37.10;97659.63;5031984;28;20029;-77
2021/10/31 09:40:16;;;;;;;6.88;1.95;;;;;;;22.17;36.58;97654.53;5032050;28;20033;-78
2021/10/31 09:42:42;;;;;;;6.65;1.38;;;;;;;22.19;36.86;97652.06;5031940;28;20021;-77
2021/10/31 09:45:09;;;;;;;8.63;1.98;;;;;;;22.12;36.99;97648.34;5031982;28;20028;-77
2021/10/31 09:47:35;;;;;;;6.50;1.95;;;;;;;22.27;36.87;97648.47;5030809;28;20029;-77
2021/10/31 09:50:00;;;;;;;6.18;1.50;;;;;;;22.37;36.62;97636.13;5031724;28;20040;-77
2021/10/31 09:52:28;;;;;;;9.30;1.70;;;;;;;22.37;36.57;97629.78;5032007;28;20499;-77
2021/10/31 09:54:55;;;;;;;6.03;1.30;;;;;;;22.30;36.74;97628.09;5035603;28;20032;-78
2021/10/31 09:57:21;;;;;;;6.53;1.98;;;;;;;22.23;36.78;97617.28;5035224;28;20025;-77
2021/10/31 09:59:56;;;;;;;6.78;1.52;;;;;;;22.42;36.31;97618.00;5021365;28;20033;-77
2021/10/31 10:05:24;;;;;;;6.22;1.25;;;;;;;22.54;35.93;97600.34;5035220;28;20044;-79
2021/10/31 10:08:14;;;;;;;5.78;1.60;;;;;;;22.66;35.48;97602.16;5017124;28;20439;-77
2021/10/31 10:10:47;;;;;;;3.53;1.20;;;;;;;22.63;35.63;97605.13;5032208;28;20029;-78
2021/10/31 10:13:20;;;;;;;10.07;2.50;;;;;;;22.76;35.27;97599.34;5033872;28;20267;-78
2021/10/31 10:15:51;;;;;;;5.80;1.52;;;;;;;22.68;35.36;97598.91;5013899;28;20017;-78
2021/10/31 10:18:33;;;;;;;6.15;1.42;;;;;;;22.76;35.52;97596.56;5016424;28;20037;-77
2021/10/31 10:21:19;;;;;;;6.05;1.30;;;;;;;22.79;34.78;97596.38;5034432;28;20044;-78
2021/10/31 10:24:12;;;;;;;4.63;1.73;;;;;;;22.77;35.26;97590.53;5016852;28;20052;-78
2021/10/31 10:26:42;;;;;;;4.28;0.93;;;;;;;22.82;34.69;97586.31;5024800;28;20041;-76
2021/10/31 10:29:18;;;;;;;5.78;1.48;;;;;;;22.98;34.43;97578.38;5013892;28;20460;-77
2021/10/31 10:31:45;;;;;;;6.18;1.27;;;;;;;22.94;34.64;97566.63;5031216;28;20029;-80
2021/10/31 10:34:12;;;;;;;7.18;1.55;;;;;;;23.06;34.51;97564.88;5033775;28;20033;-78
2021/10/31 10:36:47;;;;;;;6.90;1.90;;;;;;;23.06;34.51;97564.88;5033237;28;20067;-79
2021/10/31 10:39:15;;;;;;;5.15;1.38;;;;;;;23.06;34.75;97561.31;5013198;28;20064;-78
2021/10/31 10:41:49;;;;;;;7.50;1.58;;;;;;;23.10;34.35;97557.09;5033244;28;20036;-78
2021/10/31 10:44:36;;;;;;;7.03;1.95;;;;;;;23.30;34.16;97555.75;5013258;28;20387;-77
2021/10/31 10:47:06;;;;;;;6.78;1.30;;;;;;;23.34;33.65;97545.19;5030311;28;20047;-80
2021/10/31 10:49:37;;;;;;;8.52;2.53;;;;;;;23.50;33.88;97547.50;5032712;28;20546;-77
2021/10/31 10:52:23;;;;;;;8.75;1.50;;;;;;;23.53;33.60;97543.78;5028325;28;20514;-78
2021/10/31 10:54:54;;;;;;;6.50;1.52;;;;;;;23.45;33.84;97548.97;5029890;28;20383;-80
2021/10/31 10:57:24;;;;;;;5.20;0.82;;;;;;;23.17;33.75;97545.59;5030174;28;20030;-78
2021/10/31 10:59:53;;;;;;;9.43;1.30;;;;;;;23.47;33.60;97548.47;5029002;28;20025;-79
2021/10/31 11:02:19;;;;;;;6.30;2.15;;;;;;;23.56;33.42;97545.63;5031402;28;20037;-77
2021/10/31 11:04:50;;;;;;;6.75;1.92;;;;;;;23.65;33.63;97551.13;5030875;28;20052;-79
2021/10/31 11:07:15;;;;;;;7.75;2.28;;;;;;;23.72;33.71;97550.00;5014047;28;20087;-81
2021/10/31 11:09:47;;;;;;;7.75;1.73;;;;;;;23.45;33.90;97545.41;5032084;28;20033;-81
2021/10/31 11:12:34;;;;;;;5.68;1.65;;;;;;;23.69;33.38;97543.38;5030286;28;20026;-79
2021/10/31 11:15:06;;;;;;;5.57;1.55;;;;;;;23.38;34.11;97540.97;5029454;28;20079;-78
2021/10/31 11:17:33;;;;;;;7.50;2.33;;;;;;;23.30;34.36;97541.81;5030135;28;20403;-79
2021/10/31 11:19:59;;;;;;;4.57;1.52;;;;;;;23.43;34.56;97531.19;5032279;28;20033;-81
2021/10/31 11:22:27;;;;;;;3.33;1.33;;;;;;;23.36;34.53;97528.78;5032331;28;20018;-79
2021/10/31 11:24:54;;;;;;;7.68;1.63;;;;;;;23.51;34.21;97519.19;5032265;28;20033;-79
2021/10/31 11:27:23;;;;;;;6.15;1.48;;;;;;;23.50;34.37;97517.66;5021012;28;20087;-79
2021/10/31 11:29:50;;;;;;;4.35;1.75;;;;;;;23.44;34.34;97505.63;5030145;28;20026;-80
2021/10/31 11:32:18;;;;;;;7.57;1.77;;;;;;;23.41;34.29;97498.22;5032901;28;20506;-77
2021/10/31 11:34:47;;;;;;;5.75;1.48;;;;;;;23.42;34.60;97498.97;5032811;28;20100;-78
2021/10/31 11:37:16;;;;;;;8.90;2.20;;;;;;;23.28;34.99;97494.19;5032584;28;20030;-79
2021/10/31 11:39:43;;;;;;;10.52;1.58;;;;;;;23.34;34.60;97495.03;5032680;28;20025;-80